sensor_id;sensor_type;location;lat;lon;timestamp;temperature;humidity
23124;DHT22;11731;48.592;8.858;2022-09-16T00:00:20;16.20;99.90
23124;DHT22;11731;48.592;8.858;2022-09-16T00:02:50;16.00;99.90
23124;DHT22;11731;48.592;8.858;2022-09-16T00:05:19;15.50;99.90
23124;DHT22;11731;48.592;8.858;2022-09-16T00:07:46;15.50;99.90
23124;DHT22;11731;48.592;8.858;2022-09-16T00:10:13;15.40;99.90
23124;DHT22;11731;48.592;8.858;2022-09-16T00:12:40;15.50;99.90
23124;DHT22;11731;48.592;8.858;2022-09-16T00:15:08;15.50;99.90
23124;DHT22;11731;48.592;8.858;2022-09-16T00:17:35;15.60;99.90
23124;DHT22;11731;48.592;8.858;2022-09-16T00:20:03;15.80;99.90
23124;DHT22;11731;48.592;8.858;2022-09-16T00:22:32;15.70;99.90
23124;DHT22;11731;48.592;8.858;2022-09-16T00:24:59;15.90;99.90
23124;DHT22;11731;48.592;8.858;2022-09-16T00:27:26;16.10;99.90
23124;DHT22;11731;48.592;8.858;2022-09-16T00:29:53;16.30;99.90
23124;DHT22;11731;48.592;8.858;2022-09-16T00:32:19;16.40;99.90
23124;DHT22;11731;48.592;8.858;2022-09-16T00:34:48;16.40;99.90
23124;DHT22;11731;48.592;8.858;2022-09-16T00:37:15;16.50;99.90
23124;DHT22;11731;48.592;8.858;2022-09-16T00:39:43;16.60;99.90
23124;DHT22;11731;48.592;8.858;2022-09-16T00:42:12;16.60;99.90
23124;DHT22;11731;48.592;8.858;2022-09-16T00:44:52;16.50;99.90
23124;DHT22;11731;48.592;8.858;2022-09-16T00:47:22;16.50;99.90
23124;DHT22;11731;48.592;8.858;2022-09-16T00:49:50;16.60;99.90
23124;DHT22;11731;48.592;8.858;2022-09-16T00:52:18;16.70;99.90
23124;DHT22;11731;48.592;8.858;2022-09-16T00:54:47;16.70;99.90
23124;DHT22;11731;48.592;8.858;2022-09-16T00:57:15;16.70;99.90
23124;DHT22;11731;48.592;8.858;2022-09-16T00:59:45;16.80;99.90
23124;DHT22;11731;48.592;8.858;2022-09-16T01:02:16;16.60;99.90
23124;DHT22;11731;48.592;8.858;2022-09-16T01:04:45;16.70;99.90
23124;DHT22;11731;48.592;8.858;2022-09-16T01:07:14;16.70;99.90
23124;DHT22;11731;48.592;8.858;2022-09-16T01:09:41;16.70;99.90
23124;DHT22;11731;48.592;8.858;2022-09-16T01:12:09;16.40;99.90
23124;DHT22;11731;48.592;8.858;2022-09-16T01:14:36;16.30;99.90
23124;DHT22;11731;48.592;8.858;2022-09-16T01:18:02;16.40;99.90
23124;DHT22;11731;48.592;8.858;2022-09-16T01:23:47;16.20;99.90
23124;DHT22;11731;48.592;8.858;2022-09-16T01:29:35;16.20;99.90
23124;DHT22;11731;48.592;8.858;2022-09-16T01:32:08;16.10;99.90
23124;DHT22;11731;48.592;8.858;2022-09-16T01:34:45;16.10;99.90
23124;DHT22;11731;48.592;8.858;2022-09-16T01:37:21;16.00;99.90
23124;DHT22;11731;48.592;8.858;2022-09-16T01:39:57;16.20;99.90
23124;DHT22;11731;48.592;8.858;2022-09-16T01:42:33;16.30;99.90
23124;DHT22;11731;48.592;8.858;2022-09-16T01:45:06;16.60;99.90
23124;DHT22;11731;48.592;8.858;2022-09-16T01:47:44;16.50;99.90
23124;DHT22;11731;48.592;8.858;2022-09-16T01:50:19;16.60;99.90
23124;DHT22;11731;48.592;8.858;2022-09-16T01:52:57;16.20;99.90
23124;DHT22;11731;48.592;8.858;2022-09-16T01:55:27;15.80;99.90
23124;DHT22;11731;48.592;8.858;2022-09-16T01:57:59;15.80;99.90
23124;DHT22;11731;48.592;8.858;2022-09-16T02:00:28;16.00;99.90
23124;DHT22;11731;48.592;8.858;2022-09-16T02:03:02;16.10;99.90
23124;DHT22;11731;48.592;8.858;2022-09-16T02:05:33;16.40;99.90
23124;DHT22;11731;48.592;8.858;2022-09-16T02:08:07;16.60;99.90
23124;DHT22;11731;48.592;8.858;2022-09-16T02:10:39;16.60;99.90
23124;DHT22;11731;48.592;8.858;2022-09-16T02:13:11;16.50;99.90
23124;DHT22;11731;48.592;8.858;2022-09-16T02:15:41;16.60;99.90
23124;DHT22;11731;48.592;8.858;2022-09-16T02:18:14;16.30;99.90
23124;DHT22;11731;48.592;8.858;2022-09-16T02:20:45;16.30;99.90
23124;DHT22;11731;48.592;8.858;2022-09-16T02:23:15;16.10;99.90
23124;DHT22;11731;48.592;8.858;2022-09-16T02:25:46;16.40;99.90
23124;DHT22;11731;48.592;8.858;2022-09-16T02:28:17;16.60;99.90
23124;DHT22;11731;48.592;8.858;2022-09-16T02:30:50;16.80;99.90
23124;DHT22;11731;48.592;8.858;2022-09-16T02:33:20;16.80;99.90
23124;DHT22;11731;48.592;8.858;2022-09-16T02:35:51;16.70;99.90
23124;DHT22;11731;48.592;8.858;2022-09-16T02:38:22;16.70;99.90
23124;DHT22;11731;48.592;8.858;2022-09-16T02:40:53;16.80;99.90
23124;DHT22;11731;48.592;8.858;2022-09-16T02:43:21;16.80;99.90
23124;DHT22;11731;48.592;8.858;2022-09-16T02:45:53;16.70;99.90
23124;DHT22;11731;48.592;8.858;2022-09-16T02:48:31;16.60;99.90
23124;DHT22;11731;48.592;8.858;2022-09-16T02:51:08;16.40;99.90
23124;DHT22;11731;48.592;8.858;2022-09-16T02:53:44;16.50;99.90
23124;DHT22;11731;48.592;8.858;2022-09-16T02:56:17;16.70;99.90
23124;DHT22;11731;48.592;8.858;2022-09-16T02:58:47;16.60;99.90
23124;DHT22;11731;48.592;8.858;2022-09-16T03:01:15;16.80;99.90
23124;DHT22;11731;48.592;8.858;2022-09-16T03:03:45;16.80;99.90
23124;DHT22;11731;48.592;8.858;2022-09-16T03:06:18;16.40;99.90
23124;DHT22;11731;48.592;8.858;2022-09-16T03:08:46;16.20;99.90
23124;DHT22;11731;48.592;8.858;2022-09-16T03:11:30;16.10;99.90
23124;DHT22;11731;48.592;8.858;2022-09-16T03:14:13;16.00;99.90
23124;DHT22;11731;48.592;8.858;2022-09-16T03:16:49;16.30;99.90
23124;DHT22;11731;48.592;8.858;2022-09-16T03:19:30;16.40;99.90
23124;DHT22;11731;48.592;8.858;2022-09-16T03:22:07;16.10;99.90
23124;DHT22;11731;48.592;8.858;2022-09-16T03:24:45;16.20;99.90
23124;DHT22;11731;48.592;8.858;2022-09-16T03:27:17;16.30;99.90
23124;DHT22;11731;48.592;8.858;2022-09-16T03:29:48;16.30;99.90
23124;DHT22;11731;48.592;8.858;2022-09-16T03:32:20;16.50;99.90
23124;DHT22;11731;48.592;8.858;2022-09-16T03:34:51;16.40;99.90
23124;DHT22;11731;48.592;8.858;2022-09-16T03:37:20;16.40;99.90
23124;DHT22;11731;48.592;8.858;2022-09-16T03:39:50;16.50;99.90
23124;DHT22;11731;48.592;8.858;2022-09-16T03:42:18;16.30;99.90
23124;DHT22;11731;48.592;8.858;2022-09-16T03:44:46;16.60;99.90
23124;DHT22;11731;48.592;8.858;2022-09-16T03:47:14;16.60;99.90
23124;DHT22;11731;48.592;8.858;2022-09-16T03:49:41;16.30;99.90
23124;DHT22;11731;48.592;8.858;2022-09-16T03:52:09;16.40;99.90
23124;DHT22;11731;48.592;8.858;2022-09-16T03:54:36;16.20;99.90
23124;DHT22;11731;48.592;8.858;2022-09-16T03:57:04;16.00;99.90
23124;DHT22;11731;48.592;8.858;2022-09-16T03:59:31;15.80;99.90
23124;DHT22;11731;48.592;8.858;2022-09-16T04:01:58;15.90;99.90
23124;DHT22;11731;48.592;8.858;2022-09-16T04:04:25;16.20;99.90
23124;DHT22;11731;48.592;8.858;2022-09-16T04:06:51;16.50;99.90
23124;DHT22;11731;48.592;8.858;2022-09-16T04:09:20;16.70;99.90
23124;DHT22;11731;48.592;8.858;2022-09-16T04:11:46;16.70;99.90
23124;DHT22;11731;48.592;8.858;2022-09-16T04:14:13;16.50;99.90
23124;DHT22;11731;48.592;8.858;2022-09-16T04:16:40;16.20;99.90
23124;DHT22;11731;48.592;8.858;2022-09-16T04:19:09;16.50;99.90
23124;DHT22;11731;48.592;8.858;2022-09-16T04:21:37;16.40;99.90
23124;DHT22;11731;48.592;8.858;2022-09-16T04:24:04;16.60;99.90
23124;DHT22;11731;48.592;8.858;2022-09-16T04:26:33;16.70;99.90
23124;DHT22;11731;48.592;8.858;2022-09-16T04:29:00;16.70;99.90
23124;DHT22;11731;48.592;8.858;2022-09-16T04:31:26;16.70;99.90
23124;DHT22;11731;48.592;8.858;2022-09-16T04:33:53;16.60;99.90
23124;DHT22;11731;48.592;8.858;2022-09-16T04:36:20;16.70;99.90
23124;DHT22;11731;48.592;8.858;2022-09-16T04:38:48;16.80;99.90
23124;DHT22;11731;48.592;8.858;2022-09-16T04:41:16;16.90;99.90
23124;DHT22;11731;48.592;8.858;2022-09-16T04:43:44;16.80;99.90
23124;DHT22;11731;48.592;8.858;2022-09-16T04:46:11;16.70;99.90
23124;DHT22;11731;48.592;8.858;2022-09-16T04:48:38;16.30;99.90
23124;DHT22;11731;48.592;8.858;2022-09-16T04:51:07;16.20;99.90
23124;DHT22;11731;48.592;8.858;2022-09-16T04:53:34;16.40;99.90
23124;DHT22;11731;48.592;8.858;2022-09-16T04:56:03;16.60;99.90
23124;DHT22;11731;48.592;8.858;2022-09-16T04:58:30;16.70;99.90
23124;DHT22;11731;48.592;8.858;2022-09-16T05:01:04;16.60;99.90
23124;DHT22;11731;48.592;8.858;2022-09-16T05:03:31;16.60;99.90
23124;DHT22;11731;48.592;8.858;2022-09-16T05:06:04;16.40;99.90
23124;DHT22;11731;48.592;8.858;2022-09-16T05:08:31;16.50;99.90
23124;DHT22;11731;48.592;8.858;2022-09-16T05:11:02;16.70;99.90
23124;DHT22;11731;48.592;8.858;2022-09-16T05:13:30;16.60;99.90
23124;DHT22;11731;48.592;8.858;2022-09-16T05:16:00;16.20;99.90
23124;DHT22;11731;48.592;8.858;2022-09-16T05:18:29;16.20;99.90
23124;DHT22;11731;48.592;8.858;2022-09-16T05:20:57;16.50;99.90
23124;DHT22;11731;48.592;8.858;2022-09-16T05:23:25;16.60;99.90
23124;DHT22;11731;48.592;8.858;2022-09-16T05:25:52;16.80;99.90
23124;DHT22;11731;48.592;8.858;2022-09-16T05:28:19;16.90;99.90
23124;DHT22;11731;48.592;8.858;2022-09-16T05:30:46;16.90;99.90
23124;DHT22;11731;48.592;8.858;2022-09-16T05:33:13;17.00;99.90
23124;DHT22;11731;48.592;8.858;2022-09-16T05:35:41;17.10;99.90
23124;DHT22;11731;48.592;8.858;2022-09-16T05:38:10;17.20;99.90
23124;DHT22;11731;48.592;8.858;2022-09-16T05:40:37;17.20;99.90
23124;DHT22;11731;48.592;8.858;2022-09-16T05:43:04;17.20;99.90
23124;DHT22;11731;48.592;8.858;2022-09-16T05:45:31;17.10;99.90
23124;DHT22;11731;48.592;8.858;2022-09-16T05:47:58;17.20;99.90
23124;DHT22;11731;48.592;8.858;2022-09-16T05:50:24;17.20;99.90
23124;DHT22;11731;48.592;8.858;2022-09-16T05:52:53;17.20;99.90
23124;DHT22;11731;48.592;8.858;2022-09-16T05:55:20;17.20;99.90
23124;DHT22;11731;48.592;8.858;2022-09-16T05:57:47;17.20;99.90
23124;DHT22;11731;48.592;8.858;2022-09-16T06:00:14;17.00;99.90
23124;DHT22;11731;48.592;8.858;2022-09-16T06:02:41;16.30;99.90
23124;DHT22;11731;48.592;8.858;2022-09-16T06:05:08;16.00;99.90
23124;DHT22;11731;48.592;8.858;2022-09-16T06:07:35;16.10;99.90
23124;DHT22;11731;48.592;8.858;2022-09-16T06:10:04;16.30;99.90
23124;DHT22;11731;48.592;8.858;2022-09-16T06:12:31;16.30;99.90
23124;DHT22;11731;48.592;8.858;2022-09-16T06:14:58;15.90;99.90
23124;DHT22;11731;48.592;8.858;2022-09-16T06:17:25;16.00;99.90
23124;DHT22;11731;48.592;8.858;2022-09-16T06:19:52;15.90;99.90
23124;DHT22;11731;48.592;8.858;2022-09-16T06:22:19;16.00;99.90
23124;DHT22;11731;48.592;8.858;2022-09-16T06:24:46;16.00;99.90
23124;DHT22;11731;48.592;8.858;2022-09-16T06:27:14;15.90;99.90
23124;DHT22;11731;48.592;8.858;2022-09-16T06:29:41;16.00;99.90
23124;DHT22;11731;48.592;8.858;2022-09-16T06:32:08;15.40;99.90
23124;DHT22;11731;48.592;8.858;2022-09-16T06:34:34;15.60;99.90
23124;DHT22;11731;48.592;8.858;2022-09-16T06:37:01;15.80;99.90
23124;DHT22;11731;48.592;8.858;2022-09-16T06:39:28;15.90;99.90
23124;DHT22;11731;48.592;8.858;2022-09-16T06:41:55;15.90;99.90
23124;DHT22;11731;48.592;8.858;2022-09-16T06:44:23;16.00;99.90
23124;DHT22;11731;48.592;8.858;2022-09-16T06:46:50;15.70;99.90
23124;DHT22;11731;48.592;8.858;2022-09-16T06:49:17;15.20;99.90
23124;DHT22;11731;48.592;8.858;2022-09-16T06:51:44;14.60;99.90
23124;DHT22;11731;48.592;8.858;2022-09-16T06:54:11;14.30;99.90
23124;DHT22;11731;48.592;8.858;2022-09-16T06:56:38;14.40;99.90
23124;DHT22;11731;48.592;8.858;2022-09-16T06:59:06;14.00;99.90
23124;DHT22;11731;48.592;8.858;2022-09-16T07:01:34;14.10;99.90
23124;DHT22;11731;48.592;8.858;2022-09-16T07:04:03;14.20;99.90
23124;DHT22;11731;48.592;8.858;2022-09-16T07:06:31;14.00;99.90
23124;DHT22;11731;48.592;8.858;2022-09-16T07:08:58;13.50;99.90
23124;DHT22;11731;48.592;8.858;2022-09-16T07:11:25;13.60;99.90
23124;DHT22;11731;48.592;8.858;2022-09-16T07:13:52;13.90;99.90
23124;DHT22;11731;48.592;8.858;2022-09-16T07:16:21;13.70;99.90
23124;DHT22;11731;48.592;8.858;2022-09-16T07:18:52;14.00;99.90
23124;DHT22;11731;48.592;8.858;2022-09-16T07:21:21;14.10;99.90
23124;DHT22;11731;48.592;8.858;2022-09-16T07:23:49;14.30;99.90
23124;DHT22;11731;48.592;8.858;2022-09-16T07:26:17;14.20;99.90
23124;DHT22;11731;48.592;8.858;2022-09-16T07:28:46;14.00;99.90
23124;DHT22;11731;48.592;8.858;2022-09-16T07:31:15;14.00;99.90
23124;DHT22;11731;48.592;8.858;2022-09-16T07:33:43;14.20;99.90
23124;DHT22;11731;48.592;8.858;2022-09-16T07:36:13;14.50;99.90
23124;DHT22;11731;48.592;8.858;2022-09-16T07:38:41;14.70;99.90
23124;DHT22;11731;48.592;8.858;2022-09-16T07:41:09;14.90;99.90
23124;DHT22;11731;48.592;8.858;2022-09-16T07:43:37;15.10;99.90
23124;DHT22;11731;48.592;8.858;2022-09-16T07:46:05;14.90;99.90
23124;DHT22;11731;48.592;8.858;2022-09-16T07:48:32;14.20;99.90
23124;DHT22;11731;48.592;8.858;2022-09-16T07:51:02;13.70;99.90
23124;DHT22;11731;48.592;8.858;2022-09-16T07:53:31;13.60;99.90
23124;DHT22;11731;48.592;8.858;2022-09-16T07:56:01;13.60;99.90
23124;DHT22;11731;48.592;8.858;2022-09-16T07:58:28;13.50;99.90
23124;DHT22;11731;48.592;8.858;2022-09-16T08:00:55;13.40;99.90
23124;DHT22;11731;48.592;8.858;2022-09-16T08:03:22;13.40;99.90
23124;DHT22;11731;48.592;8.858;2022-09-16T08:05:49;13.50;99.90
23124;DHT22;11731;48.592;8.858;2022-09-16T08:08:16;13.50;99.90
23124;DHT22;11731;48.592;8.858;2022-09-16T08:10:52;13.70;99.90
23124;DHT22;11731;48.592;8.858;2022-09-16T08:13:19;14.00;99.90
23124;DHT22;11731;48.592;8.858;2022-09-16T08:15:46;14.20;99.90
23124;DHT22;11731;48.592;8.858;2022-09-16T08:18:13;14.80;99.90
23124;DHT22;11731;48.592;8.858;2022-09-16T08:20:40;15.00;99.90
23124;DHT22;11731;48.592;8.858;2022-09-16T08:23:06;15.20;99.90
23124;DHT22;11731;48.592;8.858;2022-09-16T08:25:33;15.30;99.90
23124;DHT22;11731;48.592;8.858;2022-09-16T08:28:02;15.60;99.90
23124;DHT22;11731;48.592;8.858;2022-09-16T08:30:29;15.60;99.90
23124;DHT22;11731;48.592;8.858;2022-09-16T08:32:56;15.60;99.90
23124;DHT22;11731;48.592;8.858;2022-09-16T08:35:24;15.80;99.90
23124;DHT22;11731;48.592;8.858;2022-09-16T08:37:51;16.00;99.90
23124;DHT22;11731;48.592;8.858;2022-09-16T08:40:20;16.00;99.90
23124;DHT22;11731;48.592;8.858;2022-09-16T08:42:57;15.80;99.90
23124;DHT22;11731;48.592;8.858;2022-09-16T08:45:33;15.90;99.90
23124;DHT22;11731;48.592;8.858;2022-09-16T08:48:16;16.20;99.90
23124;DHT22;11731;48.592;8.858;2022-09-16T08:50:48;16.40;99.90
23124;DHT22;11731;48.592;8.858;2022-09-16T08:53:18;16.40;99.90
23124;DHT22;11731;48.592;8.858;2022-09-16T08:55:48;16.30;99.90
23124;DHT22;11731;48.592;8.858;2022-09-16T08:58:18;16.20;99.90
23124;DHT22;11731;48.592;8.858;2022-09-16T09:00:51;16.30;99.90
23124;DHT22;11731;48.592;8.858;2022-09-16T09:03:29;16.40;99.90
23124;DHT22;11731;48.592;8.858;2022-09-16T09:05:58;16.40;99.90
23124;DHT22;11731;48.592;8.858;2022-09-16T09:08:40;16.30;99.90
23124;DHT22;11731;48.592;8.858;2022-09-16T09:11:16;16.20;99.90
23124;DHT22;11731;48.592;8.858;2022-09-16T09:16:55;16.20;99.90
23124;DHT22;11731;48.592;8.858;2022-09-16T09:19:32;16.20;99.90
23124;DHT22;11731;48.592;8.858;2022-09-16T09:22:04;16.20;99.90
23124;DHT22;11731;48.592;8.858;2022-09-16T09:24:47;16.50;99.90
23124;DHT22;11731;48.592;8.858;2022-09-16T09:27:22;16.50;99.90
23124;DHT22;11731;48.592;8.858;2022-09-16T09:30:01;16.50;99.90
23124;DHT22;11731;48.592;8.858;2022-09-16T09:32:41;16.10;99.90
23124;DHT22;11731;48.592;8.858;2022-09-16T09:35:21;15.70;99.90
23124;DHT22;11731;48.592;8.858;2022-09-16T09:38:14;15.80;99.90
23124;DHT22;11731;48.592;8.858;2022-09-16T09:40:49;15.90;99.90
23124;DHT22;11731;48.592;8.858;2022-09-16T09:43:22;15.90;99.90
23124;DHT22;11731;48.592;8.858;2022-09-16T09:45:55;16.00;99.90
23124;DHT22;11731;48.592;8.858;2022-09-16T09:48:28;15.90;99.90
23124;DHT22;11731;48.592;8.858;2022-09-16T09:50:59;15.50;99.90
23124;DHT22;11731;48.592;8.858;2022-09-16T09:53:34;15.30;99.90
23124;DHT22;11731;48.592;8.858;2022-09-16T09:56:12;15.40;99.90
23124;DHT22;11731;48.592;8.858;2022-09-16T09:58:42;15.80;99.90
23124;DHT22;11731;48.592;8.858;2022-09-16T10:01:13;16.10;99.90
23124;DHT22;11731;48.592;8.858;2022-09-16T10:03:41;16.40;99.90
23124;DHT22;11731;48.592;8.858;2022-09-16T10:06:10;16.60;99.90
23124;DHT22;11731;48.592;8.858;2022-09-16T10:08:44;16.80;99.90
23124;DHT22;11731;48.592;8.858;2022-09-16T10:11:16;16.70;99.90
23124;DHT22;11731;48.592;8.858;2022-09-16T10:13:48;16.20;99.90
23124;DHT22;11731;48.592;8.858;2022-09-16T10:16:18;16.00;99.90
23124;DHT22;11731;48.592;8.858;2022-09-16T10:18:55;16.10;99.90
23124;DHT22;11731;48.592;8.858;2022-09-16T10:21:22;15.90;99.90
23124;DHT22;11731;48.592;8.858;2022-09-16T10:27:26;16.00;99.90
23124;DHT22;11731;48.592;8.858;2022-09-16T10:30:06;16.20;99.90
23124;DHT22;11731;48.592;8.858;2022-09-16T10:32:39;15.70;99.90
23124;DHT22;11731;48.592;8.858;2022-09-16T10:35:17;15.90;99.90
23124;DHT22;11731;48.592;8.858;2022-09-16T10:37:49;16.10;99.90
23124;DHT22;11731;48.592;8.858;2022-09-16T10:40:17;16.30;99.90
23124;DHT22;11731;48.592;8.858;2022-09-16T10:42:46;16.50;99.90
23124;DHT22;11731;48.592;8.858;2022-09-16T10:45:15;16.60;99.90
23124;DHT22;11731;48.592;8.858;2022-09-16T10:47:49;16.60;99.90
23124;DHT22;11731;48.592;8.858;2022-09-16T10:50:19;16.50;99.90
23124;DHT22;11731;48.592;8.858;2022-09-16T10:52:47;16.40;99.90
23124;DHT22;11731;48.592;8.858;2022-09-16T10:55:23;16.40;99.90
23124;DHT22;11731;48.592;8.858;2022-09-16T10:57:51;16.20;99.90
23124;DHT22;11731;48.592;8.858;2022-09-16T11:00:20;16.30;99.90
23124;DHT22;11731;48.592;8.858;2022-09-16T11:03:13;16.40;99.90
23124;DHT22;11731;48.592;8.858;2022-09-16T11:05:55;16.40;99.90
23124;DHT22;11731;48.592;8.858;2022-09-16T11:08:35;16.50;99.90
23124;DHT22;11731;48.592;8.858;2022-09-16T11:11:10;16.40;99.90
23124;DHT22;11731;48.592;8.858;2022-09-16T11:13:45;16.40;99.90
23124;DHT22;11731;48.592;8.858;2022-09-16T11:16:35;16.20;99.90
23124;DHT22;11731;48.592;8.858;2022-09-16T11:19:12;16.30;99.90
23124;DHT22;11731;48.592;8.858;2022-09-16T11:21:51;16.20;99.90
23124;DHT22;11731;48.592;8.858;2022-09-16T11:24:36;16.10;99.90
23124;DHT22;11731;48.592;8.858;2022-09-16T11:27:18;16.40;99.90
23124;DHT22;11731;48.592;8.858;2022-09-16T11:30:00;16.50;99.90
23124;DHT22;11731;48.592;8.858;2022-09-16T11:32:37;16.30;99.90
23124;DHT22;11731;48.592;8.858;2022-09-16T11:35:25;15.90;99.90
23124;DHT22;11731;48.592;8.858;2022-09-16T11:37:58;15.90;99.90
23124;DHT22;11731;48.592;8.858;2022-09-16T11:40:37;16.10;99.90
23124;DHT22;11731;48.592;8.858;2022-09-16T11:43:22;16.30;99.90
23124;DHT22;11731;48.592;8.858;2022-09-16T11:45:59;16.20;99.90
23124;DHT22;11731;48.592;8.858;2022-09-16T11:48:40;16.40;99.90
23124;DHT22;11731;48.592;8.858;2022-09-16T11:51:27;16.40;99.90
23124;DHT22;11731;48.592;8.858;2022-09-16T11:54:06;16.00;99.90
23124;DHT22;11731;48.592;8.858;2022-09-16T11:56:38;15.90;99.90
23124;DHT22;11731;48.592;8.858;2022-09-16T11:59:13;15.90;99.90
23124;DHT22;11731;48.592;8.858;2022-09-16T12:01:43;16.00;99.90
23124;DHT22;11731;48.592;8.858;2022-09-16T12:04:17;16.30;99.90
23124;DHT22;11731;48.592;8.858;2022-09-16T12:06:53;16.40;99.90
23124;DHT22;11731;48.592;8.858;2022-09-16T12:09:30;16.50;99.90
23124;DHT22;11731;48.592;8.858;2022-09-16T12:12:07;16.10;99.90
23124;DHT22;11731;48.592;8.858;2022-09-16T12:14:39;16.30;99.90
23124;DHT22;11731;48.592;8.858;2022-09-16T12:17:12;16.40;99.90
23124;DHT22;11731;48.592;8.858;2022-09-16T12:19:44;16.60;99.90
23124;DHT22;11731;48.592;8.858;2022-09-16T12:22:19;16.20;99.90
23124;DHT22;11731;48.592;8.858;2022-09-16T12:24:56;16.20;99.90
23124;DHT22;11731;48.592;8.858;2022-09-16T12:27:34;16.30;99.90
23124;DHT22;11731;48.592;8.858;2022-09-16T12:30:05;16.20;99.90
23124;DHT22;11731;48.592;8.858;2022-09-16T12:32:44;16.50;99.90
23124;DHT22;11731;48.592;8.858;2022-09-16T12:35:14;16.40;99.90
23124;DHT22;11731;48.592;8.858;2022-09-16T12:37:45;16.20;99.90
23124;DHT22;11731;48.592;8.858;2022-09-16T12:40:16;16.20;99.90
23124;DHT22;11731;48.592;8.858;2022-09-16T12:43:15;16.40;99.90
23124;DHT22;11731;48.592;8.858;2022-09-16T12:49:17;16.60;99.90
23124;DHT22;11731;48.592;8.858;2022-09-16T12:52:18;17.10;99.90
23124;DHT22;11731;48.592;8.858;2022-09-16T12:55:29;17.50;99.90
23124;DHT22;11731;48.592;8.858;2022-09-16T12:58:32;17.60;98.70
23124;DHT22;11731;48.592;8.858;2022-09-16T13:01:15;17.80;98.40
23124;DHT22;11731;48.592;8.858;2022-09-16T13:03:45;17.50;98.10
23124;DHT22;11731;48.592;8.858;2022-09-16T13:06:20;17.10;98.20
23124;DHT22;11731;48.592;8.858;2022-09-16T13:08:48;17.10;98.50
23124;DHT22;11731;48.592;8.858;2022-09-16T13:11:20;17.20;97.00
23124;DHT22;11731;48.592;8.858;2022-09-16T13:13:49;17.20;98.20
23124;DHT22;11731;48.592;8.858;2022-09-16T13:16:28;17.50;98.70
23124;DHT22;11731;48.592;8.858;2022-09-16T13:19:14;17.70;97.80
23124;DHT22;11731;48.592;8.858;2022-09-16T13:21:46;17.30;96.70
23124;DHT22;11731;48.592;8.858;2022-09-16T13:24:26;17.00;97.10
23124;DHT22;11731;48.592;8.858;2022-09-16T13:26:55;17.00;97.10
23124;DHT22;11731;48.592;8.858;2022-09-16T13:29:24;17.40;99.00
23124;DHT22;11731;48.592;8.858;2022-09-16T13:31:52;17.60;97.80
23124;DHT22;11731;48.592;8.858;2022-09-16T13:34:19;17.50;98.70
23124;DHT22;11731;48.592;8.858;2022-09-16T13:36:46;17.40;98.90
23124;DHT22;11731;48.592;8.858;2022-09-16T13:39:25;17.30;98.90
23124;DHT22;11731;48.592;8.858;2022-09-16T13:41:54;17.20;99.40
23124;DHT22;11731;48.592;8.858;2022-09-16T13:44:37;17.40;99.90
23124;DHT22;11731;48.592;8.858;2022-09-16T13:47:28;17.70;99.00
23124;DHT22;11731;48.592;8.858;2022-09-16T13:50:01;17.30;97.20
23124;DHT22;11731;48.592;8.858;2022-09-16T13:52:33;16.80;98.20
23124;DHT22;11731;48.592;8.858;2022-09-16T13:55:01;17.00;98.70
23124;DHT22;11731;48.592;8.858;2022-09-16T13:57:44;17.10;98.50
23124;DHT22;11731;48.592;8.858;2022-09-16T14:00:17;17.60;98.40
23124;DHT22;11731;48.592;8.858;2022-09-16T14:02:57;17.70;98.50
23124;DHT22;11731;48.592;8.858;2022-09-16T14:08:49;17.50;98.10
23124;DHT22;11731;48.592;8.858;2022-09-16T14:11:24;17.40;98.30
23124;DHT22;11731;48.592;8.858;2022-09-16T14:14:00;17.10;96.60
23124;DHT22;11731;48.592;8.858;2022-09-16T14:16:31;17.00;98.30
23124;DHT22;11731;48.592;8.858;2022-09-16T14:19:02;17.00;98.30
23124;DHT22;11731;48.592;8.858;2022-09-16T14:21:29;17.20;98.80
23124;DHT22;11731;48.592;8.858;2022-09-16T14:24:07;17.10;99.10
23124;DHT22;11731;48.592;8.858;2022-09-16T14:26:37;17.10;98.80
23124;DHT22;11731;48.592;8.858;2022-09-16T14:29:10;17.10;98.10
23124;DHT22;11731;48.592;8.858;2022-09-16T14:31:37;16.90;97.20
23124;DHT22;11731;48.592;8.858;2022-09-16T14:34:12;16.80;97.40
23124;DHT22;11731;48.592;8.858;2022-09-16T14:36:40;17.00;96.60
23124;DHT22;11731;48.592;8.858;2022-09-16T14:39:10;17.00;97.00
23124;DHT22;11731;48.592;8.858;2022-09-16T14:41:43;17.30;97.10
23124;DHT22;11731;48.592;8.858;2022-09-16T14:44:19;17.70;96.80
23124;DHT22;11731;48.592;8.858;2022-09-16T14:46:49;18.00;96.70
23124;DHT22;11731;48.592;8.858;2022-09-16T14:49:17;17.70;96.00
23124;DHT22;11731;48.592;8.858;2022-09-16T14:51:47;17.40;95.70
23124;DHT22;11731;48.592;8.858;2022-09-16T14:54:16;17.30;95.90
23124;DHT22;11731;48.592;8.858;2022-09-16T14:56:54;17.10;95.60
23124;DHT22;11731;48.592;8.858;2022-09-16T14:59:25;17.30;96.00
23124;DHT22;11731;48.592;8.858;2022-09-16T15:01:54;17.40;96.40
23124;DHT22;11731;48.592;8.858;2022-09-16T15:04:25;17.20;95.20
23124;DHT22;11731;48.592;8.858;2022-09-16T15:06:57;17.10;95.20
23124;DHT22;11731;48.592;8.858;2022-09-16T15:09:37;16.90;94.80
23124;DHT22;11731;48.592;8.858;2022-09-16T15:12:05;17.00;95.30
23124;DHT22;11731;48.592;8.858;2022-09-16T15:14:40;17.00;94.90
23124;DHT22;11731;48.592;8.858;2022-09-16T15:17:07;17.10;95.20
23124;DHT22;11731;48.592;8.858;2022-09-16T15:19:36;17.40;95.20
23124;DHT22;11731;48.592;8.858;2022-09-16T15:22:06;17.70;94.90
23124;DHT22;11731;48.592;8.858;2022-09-16T15:24:34;18.20;94.50
23124;DHT22;11731;48.592;8.858;2022-09-16T15:27:06;18.50;94.80
23124;DHT22;11731;48.592;8.858;2022-09-16T15:29:34;18.60;94.80
23124;DHT22;11731;48.592;8.858;2022-09-16T15:32:14;18.20;95.10
23124;DHT22;11731;48.592;8.858;2022-09-16T15:34:42;18.00;96.10
23124;DHT22;11731;48.592;8.858;2022-09-16T15:37:28;18.10;96.40
23124;DHT22;11731;48.592;8.858;2022-09-16T15:40:10;18.10;96.40
23124;DHT22;11731;48.592;8.858;2022-09-16T15:42:44;17.70;95.70
23124;DHT22;11731;48.592;8.858;2022-09-16T15:45:14;17.60;95.70
23124;DHT22;11731;48.592;8.858;2022-09-16T15:47:53;17.70;95.50
23124;DHT22;11731;48.592;8.858;2022-09-16T15:50:22;17.80;95.40
23124;DHT22;11731;48.592;8.858;2022-09-16T15:52:54;18.00;95.40
23124;DHT22;11731;48.592;8.858;2022-09-16T15:55:30;18.00;95.40
23124;DHT22;11731;48.592;8.858;2022-09-16T15:58:04;17.70;96.80
23124;DHT22;11731;48.592;8.858;2022-09-16T16:01:00;17.60;96.20
23124;DHT22;11731;48.592;8.858;2022-09-16T16:03:36;17.10;95.40
23124;DHT22;11731;48.592;8.858;2022-09-16T16:06:04;16.80;96.10
23124;DHT22;11731;48.592;8.858;2022-09-16T16:08:41;17.10;96.30
23124;DHT22;11731;48.592;8.858;2022-09-16T16:11:10;17.30;95.70
23124;DHT22;11731;48.592;8.858;2022-09-16T16:13:37;17.60;95.80
23124;DHT22;11731;48.592;8.858;2022-09-16T16:16:04;17.70;95.40
23124;DHT22;11731;48.592;8.858;2022-09-16T16:18:34;17.50;96.10